Staplehurst, United Kingdom
Current Conditions -  °F | °C
As of 2:50 PM on Sunday 23 Nov 2014 (Local Time) from EGMD Reporting Station
Light Rain Light Rain  
Wind Chill:   Ceiling: 2500
Heat Index:   Visibility: 2.5mi
Dew Point:   Wind: 15mph
Humidity: 100%   Direction: 350°N
Pressure: 29.97"   Gusts: NA
Location:  51.16°N, 0.55°E
Report Text: EGMD 231450Z 35013KT 4000 -RADZ SCT009 BKN025 09/09 Q1015
Loading
Personal Weather Stations






























Interactive Weather Map New forecast layout! Learn more

10-Day Weather Forecast

Advertisements
Track Severe Weather on mobile